METAR AND TAF INFORMATION
METAR FOR KCLW
ADDS - METARS form results

(0430 UTC 26 February 2021)
Data provider http://aviationweather.gov/metar/data/
 
METAR text: KCLW 260415Z AUTO 00000KT 10SM 17/16 A3018 RMK AO2
Conditions at: KCLW (CLEARWATER , FL, US) observed 0415 UTC 26 February 2021
Temperature: 17.0°C (63°F)
Dewpoint: 16.0°C (61°F) [RH = 94%]
Pressure (altimeter): 30.18 inches Hg (1022.1 mb)
Winds: calm
Visibility: 10 or more miles (16+ km)
Ceiling: unknown
Clouds: missing
Weather: automated observation with no human augmentation;
there may or may not be significant weather present at this time

METAR text: KCLW 260355Z AUTO 00000KT 10SM 18/17 A3018 RMK AO2
Conditions at: KCLW (CLEARWATER , FL, US) observed 0355 UTC 26 February 2021
Temperature: 18.0°C (64°F)
Dewpoint: 17.0°C (63°F) [RH = 94%]
Pressure (altimeter): 30.18 inches Hg (1022.1 mb)
Winds: calm
Visibility: 10 or more miles (16+ km)
Ceiling: unknown
Clouds: missing
Weather: automated observation with no human augmentation;
there may or may not be significant weather present at this time

METAR text: KCLW 260335Z AUTO 00000KT 10SM 18/17 A3018 RMK AO2
Conditions at: KCLW (CLEARWATER , FL, US) observed 0335 UTC 26 February 2021
Temperature: 18.0°C (64°F)
Dewpoint: 17.0°C (63°F) [RH = 94%]
Pressure (altimeter): 30.18 inches Hg (1022.1 mb)
Winds: calm
Visibility: 10 or more miles (16+ km)
Ceiling: unknown
Clouds: missing
Weather: automated observation with no human augmentation;
there may or may not be significant weather present at this time

 AIRPORT MAP

 RUNWAY INFORMATION
Runway 16 Runway length 3300 ft Runway width 75 ft
Runway elevation 71 ft Runway displaced threshold 300 ft Runway heading 155
Runway 34 Runway length 3300 ft Runway width 75 ft
Runway elevation 71 ft Runway displaced threshold 650 ft Runway heading 335

 AIRPORT FREQUENCIES
Type A/D Name TAMPA APP/ Frequency 125.3 MHZ
Type UNIC Name CTAF/UNICO Frequency 123 MHZ

 AIRPORT NEAR NAVIGATION AIDS

-